sensor_id;sensor_type;location;lat;lon;timestamp;P1;durP1;ratioP1;P2;durP2;ratioP2
23898;SDS011;20544;50.018;20.010;2023-02-12T00:01:47;56.45;;;38.48;;
23898;SDS011;20544;50.018;20.010;2023-02-12T00:05:04;56.18;;;39.10;;
23898;SDS011;20544;50.018;20.010;2023-02-12T00:11:38;57.10;;;37.25;;
23898;SDS011;20544;50.018;20.010;2023-02-12T00:14:55;53.60;;;36.38;;
23898;SDS011;20544;50.018;20.010;2023-02-12T00:18:11;56.10;;;38.73;;
23898;SDS011;20544;50.018;20.010;2023-02-12T00:21:28;57.35;;;38.68;;
23898;SDS011;20544;50.018;20.010;2023-02-12T00:24:44;57.08;;;39.38;;
23898;SDS011;20544;50.018;20.010;2023-02-12T00:28:00;58.45;;;41.10;;
23898;SDS011;20544;50.018;20.010;2023-02-12T00:31:17;57.08;;;39.95;;
23898;SDS011;20544;50.018;20.010;2023-02-12T00:34:36;59.00;;;40.00;;
23898;SDS011;20544;50.018;20.010;2023-02-12T00:37:53;59.58;;;40.98;;
23898;SDS011;20544;50.018;20.010;2023-02-12T00:41:10;58.93;;;40.70;;
23898;SDS011;20544;50.018;20.010;2023-02-12T00:44:26;58.85;;;39.50;;
23898;SDS011;20544;50.018;20.010;2023-02-12T00:47:42;56.45;;;39.18;;
23898;SDS011;20544;50.018;20.010;2023-02-12T00:50:58;55.20;;;38.00;;
23898;SDS011;20544;50.018;20.010;2023-02-12T00:54:16;55.05;;;39.35;;
23898;SDS011;20544;50.018;20.010;2023-02-12T00:57:33;51.23;;;35.43;;
23898;SDS011;20544;50.018;20.010;2023-02-12T01:00:51;54.23;;;38.28;;
23898;SDS011;20544;50.018;20.010;2023-02-12T01:04:08;55.58;;;38.03;;
23898;SDS011;20544;50.018;20.010;2023-02-12T01:07:27;56.33;;;36.47;;
23898;SDS011;20544;50.018;20.010;2023-02-12T01:10:44;53.78;;;39.03;;
23898;SDS011;20544;50.018;20.010;2023-02-12T01:14:07;55.68;;;38.60;;
23898;SDS011;20544;50.018;20.010;2023-02-12T01:17:23;55.30;;;38.18;;
23898;SDS011;20544;50.018;20.010;2023-02-12T01:20:39;56.15;;;39.30;;
23898;SDS011;20544;50.018;20.010;2023-02-12T01:23:55;56.05;;;39.35;;
23898;SDS011;20544;50.018;20.010;2023-02-12T01:27:12;58.25;;;40.98;;
23898;SDS011;20544;50.018;20.010;2023-02-12T01:30:29;52.85;;;37.85;;
23898;SDS011;20544;50.018;20.010;2023-02-12T01:33:47;50.05;;;34.65;;
23898;SDS011;20544;50.018;20.010;2023-02-12T01:37:10;54.60;;;38.63;;
23898;SDS011;20544;50.018;20.010;2023-02-12T01:40:26;52.08;;;36.70;;
23898;SDS011;20544;50.018;20.010;2023-02-12T01:43:43;53.25;;;37.03;;
23898;SDS011;20544;50.018;20.010;2023-02-12T01:47:16;53.45;;;37.48;;
23898;SDS011;20544;50.018;20.010;2023-02-12T01:53:51;52.98;;;37.03;;
23898;SDS011;20544;50.018;20.010;2023-02-12T01:57:10;52.68;;;37.20;;
23898;SDS011;20544;50.018;20.010;2023-02-12T02:00:28;48.23;;;34.98;;
23898;SDS011;20544;50.018;20.010;2023-02-12T02:03:46;49.20;;;36.15;;
23898;SDS011;20544;50.018;20.010;2023-02-12T02:07:05;45.75;;;32.53;;
23898;SDS011;20544;50.018;20.010;2023-02-12T02:10:23;45.60;;;31.95;;
23898;SDS011;20544;50.018;20.010;2023-02-12T02:13:41;45.25;;;33.18;;
23898;SDS011;20544;50.018;20.010;2023-02-12T02:17:23;47.68;;;34.05;;
23898;SDS011;20544;50.018;20.010;2023-02-12T02:25:09;43.20;;;30.45;;
23898;SDS011;20544;50.018;20.010;2023-02-12T02:29:02;39.18;;;30.30;;
23898;SDS011;20544;50.018;20.010;2023-02-12T02:32:27;44.90;;;32.48;;
23898;SDS011;20544;50.018;20.010;2023-02-12T02:35:48;42.45;;;31.53;;
23898;SDS011;20544;50.018;20.010;2023-02-12T02:39:12;42.35;;;31.80;;
23898;SDS011;20544;50.018;20.010;2023-02-12T02:42:34;39.45;;;29.98;;
23898;SDS011;20544;50.018;20.010;2023-02-12T02:45:54;42.73;;;30.93;;
23898;SDS011;20544;50.018;20.010;2023-02-12T02:49:18;36.85;;;27.15;;
23898;SDS011;20544;50.018;20.010;2023-02-12T02:52:39;35.88;;;27.75;;
23898;SDS011;20544;50.018;20.010;2023-02-12T02:56:00;38.18;;;28.73;;
23898;SDS011;20544;50.018;20.010;2023-02-12T02:59:20;35.40;;;26.43;;
23898;SDS011;20544;50.018;20.010;2023-02-12T03:02:41;35.03;;;25.65;;
23898;SDS011;20544;50.018;20.010;2023-02-12T03:06:03;33.00;;;23.68;;
23898;SDS011;20544;50.018;20.010;2023-02-12T03:09:25;32.03;;;22.33;;
23898;SDS011;20544;50.018;20.010;2023-02-12T03:12:46;29.90;;;22.90;;
23898;SDS011;20544;50.018;20.010;2023-02-12T03:16:08;33.88;;;24.10;;
23898;SDS011;20544;50.018;20.010;2023-02-12T03:19:28;32.58;;;23.00;;
23898;SDS011;20544;50.018;20.010;2023-02-12T03:22:50;34.40;;;23.98;;
23898;SDS011;20544;50.018;20.010;2023-02-12T03:26:12;34.45;;;25.53;;
23898;SDS011;20544;50.018;20.010;2023-02-12T03:29:32;32.68;;;23.63;;
23898;SDS011;20544;50.018;20.010;2023-02-12T03:32:53;32.55;;;25.05;;
23898;SDS011;20544;50.018;20.010;2023-02-12T03:36:13;31.78;;;24.18;;
23898;SDS011;20544;50.018;20.010;2023-02-12T03:39:37;34.25;;;23.88;;
23898;SDS011;20544;50.018;20.010;2023-02-12T03:43:01;31.23;;;22.40;;
23898;SDS011;20544;50.018;20.010;2023-02-12T03:46:24;29.93;;;22.15;;
23898;SDS011;20544;50.018;20.010;2023-02-12T03:49:45;28.68;;;21.55;;
23898;SDS011;20544;50.018;20.010;2023-02-12T03:53:12;28.43;;;20.20;;
23898;SDS011;20544;50.018;20.010;2023-02-12T03:56:29;29.65;;;20.35;;
23898;SDS011;20544;50.018;20.010;2023-02-12T03:59:49;26.83;;;19.03;;
23898;SDS011;20544;50.018;20.010;2023-02-12T04:03:07;28.50;;;19.87;;
23898;SDS011;20544;50.018;20.010;2023-02-12T04:06:25;25.80;;;18.68;;
23898;SDS011;20544;50.018;20.010;2023-02-12T04:09:41;25.60;;;19.35;;
23898;SDS011;20544;50.018;20.010;2023-02-12T04:12:59;25.78;;;18.73;;
23898;SDS011;20544;50.018;20.010;2023-02-12T04:16:24;24.38;;;17.95;;
23898;SDS011;20544;50.018;20.010;2023-02-12T04:19:46;23.25;;;17.70;;
23898;SDS011;20544;50.018;20.010;2023-02-12T04:23:12;27.68;;;18.68;;
23898;SDS011;20544;50.018;20.010;2023-02-12T04:26:38;22.70;;;17.03;;
23898;SDS011;20544;50.018;20.010;2023-02-12T04:29:59;25.05;;;17.98;;
23898;SDS011;20544;50.018;20.010;2023-02-12T04:33:24;23.75;;;17.43;;
23898;SDS011;20544;50.018;20.010;2023-02-12T04:36:46;20.98;;;16.23;;
23898;SDS011;20544;50.018;20.010;2023-02-12T04:40:10;22.48;;;16.00;;
23898;SDS011;20544;50.018;20.010;2023-02-12T04:43:30;23.33;;;16.30;;
23898;SDS011;20544;50.018;20.010;2023-02-12T04:46:49;20.23;;;15.33;;
23898;SDS011;20544;50.018;20.010;2023-02-12T04:50:06;25.70;;;17.48;;
23898;SDS011;20544;50.018;20.010;2023-02-12T04:53:24;26.65;;;19.05;;
23898;SDS011;20544;50.018;20.010;2023-02-12T04:56:42;26.00;;;16.63;;
23898;SDS011;20544;50.018;20.010;2023-02-12T05:00:00;23.38;;;15.78;;
23898;SDS011;20544;50.018;20.010;2023-02-12T05:03:20;21.93;;;14.55;;
23898;SDS011;20544;50.018;20.010;2023-02-12T05:06:37;23.85;;;13.98;;
23898;SDS011;20544;50.018;20.010;2023-02-12T05:09:54;21.80;;;12.65;;
23898;SDS011;20544;50.018;20.010;2023-02-12T05:13:10;20.08;;;10.93;;
23898;SDS011;20544;50.018;20.010;2023-02-12T05:16:27;20.55;;;10.73;;
23898;SDS011;20544;50.018;20.010;2023-02-12T05:19:43;20.33;;;11.50;;
23898;SDS011;20544;50.018;20.010;2023-02-12T05:23:00;18.30;;;10.28;;
23898;SDS011;20544;50.018;20.010;2023-02-12T05:26:17;15.78;;;9.55;;
23898;SDS011;20544;50.018;20.010;2023-02-12T05:29:34;18.15;;;10.10;;
23898;SDS011;20544;50.018;20.010;2023-02-12T05:32:51;20.95;;;10.18;;
23898;SDS011;20544;50.018;20.010;2023-02-12T05:36:08;19.10;;;10.25;;
23898;SDS011;20544;50.018;20.010;2023-02-12T05:39:27;16.65;;;9.65;;
23898;SDS011;20544;50.018;20.010;2023-02-12T05:42:43;15.60;;;9.90;;
23898;SDS011;20544;50.018;20.010;2023-02-12T05:46:00;17.78;;;9.90;;
23898;SDS011;20544;50.018;20.010;2023-02-12T05:49:17;17.25;;;9.50;;
23898;SDS011;20544;50.018;20.010;2023-02-12T05:52:34;17.30;;;8.90;;
23898;SDS011;20544;50.018;20.010;2023-02-12T05:55:50;15.75;;;8.90;;
23898;SDS011;20544;50.018;20.010;2023-02-12T05:59:12;14.65;;;8.53;;
23898;SDS011;20544;50.018;20.010;2023-02-12T06:02:28;15.08;;;8.40;;
23898;SDS011;20544;50.018;20.010;2023-02-12T06:05:50;16.28;;;9.03;;
23898;SDS011;20544;50.018;20.010;2023-02-12T06:09:06;19.45;;;9.28;;
23898;SDS011;20544;50.018;20.010;2023-02-12T06:12:24;17.23;;;9.33;;
23898;SDS011;20544;50.018;20.010;2023-02-12T06:15:40;16.18;;;9.35;;
23898;SDS011;20544;50.018;20.010;2023-02-12T06:18:57;15.58;;;8.43;;
23898;SDS011;20544;50.018;20.010;2023-02-12T06:22:16;15.23;;;8.05;;
23898;SDS011;20544;50.018;20.010;2023-02-12T06:25:32;16.75;;;8.15;;
23898;SDS011;20544;50.018;20.010;2023-02-12T06:28:50;16.50;;;8.08;;
23898;SDS011;20544;50.018;20.010;2023-02-12T06:32:06;15.15;;;8.65;;
23898;SDS011;20544;50.018;20.010;2023-02-12T06:35:23;14.95;;;7.83;;
23898;SDS011;20544;50.018;20.010;2023-02-12T06:38:39;16.75;;;8.83;;
23898;SDS011;20544;50.018;20.010;2023-02-12T06:41:56;14.45;;;8.13;;
23898;SDS011;20544;50.018;20.010;2023-02-12T06:45:15;11.68;;;7.33;;
23898;SDS011;20544;50.018;20.010;2023-02-12T06:48:31;15.38;;;8.73;;
23898;SDS011;20544;50.018;20.010;2023-02-12T06:51:48;16.43;;;8.40;;
23898;SDS011;20544;50.018;20.010;2023-02-12T06:55:06;14.15;;;8.33;;
23898;SDS011;20544;50.018;20.010;2023-02-12T06:58:23;12.78;;;7.43;;
23898;SDS011;20544;50.018;20.010;2023-02-12T07:01:39;14.70;;;8.48;;
23898;SDS011;20544;50.018;20.010;2023-02-12T07:04:55;17.25;;;7.73;;
23898;SDS011;20544;50.018;20.010;2023-02-12T07:08:13;13.70;;;7.80;;
23898;SDS011;20544;50.018;20.010;2023-02-12T07:11:30;14.18;;;8.05;;
23898;SDS011;20544;50.018;20.010;2023-02-12T07:14:47;16.45;;;8.45;;
23898;SDS011;20544;50.018;20.010;2023-02-12T07:18:04;14.18;;;7.53;;
23898;SDS011;20544;50.018;20.010;2023-02-12T07:21:20;18.13;;;8.25;;
23898;SDS011;20544;50.018;20.010;2023-02-12T07:24:40;14.08;;;7.48;;
23898;SDS011;20544;50.018;20.010;2023-02-12T07:27:56;14.90;;;7.77;;
23898;SDS011;20544;50.018;20.010;2023-02-12T07:31:13;10.80;;;6.35;;
23898;SDS011;20544;50.018;20.010;2023-02-12T07:34:32;12.08;;;6.30;;
23898;SDS011;20544;50.018;20.010;2023-02-12T07:37:48;11.08;;;6.25;;
23898;SDS011;20544;50.018;20.010;2023-02-12T07:41:08;9.13;;;5.95;;
23898;SDS011;20544;50.018;20.010;2023-02-12T07:44:28;10.63;;;6.13;;
23898;SDS011;20544;50.018;20.010;2023-02-12T07:47:45;12.33;;;6.48;;
23898;SDS011;20544;50.018;20.010;2023-02-12T07:51:03;10.28;;;6.28;;
23898;SDS011;20544;50.018;20.010;2023-02-12T07:54:22;10.88;;;6.40;;
23898;SDS011;20544;50.018;20.010;2023-02-12T07:57:38;9.75;;;6.30;;
23898;SDS011;20544;50.018;20.010;2023-02-12T08:00:55;12.33;;;6.73;;
23898;SDS011;20544;50.018;20.010;2023-02-12T08:04:11;10.60;;;6.40;;
23898;SDS011;20544;50.018;20.010;2023-02-12T08:07:30;9.08;;;5.90;;
23898;SDS011;20544;50.018;20.010;2023-02-12T08:10:46;14.95;;;7.93;;
23898;SDS011;20544;50.018;20.010;2023-02-12T08:14:03;11.50;;;7.58;;
23898;SDS011;20544;50.018;20.010;2023-02-12T08:17:20;10.88;;;6.55;;
23898;SDS011;20544;50.018;20.010;2023-02-12T08:20:37;9.55;;;5.80;;
23898;SDS011;20544;50.018;20.010;2023-02-12T08:23:53;9.20;;;5.70;;
23898;SDS011;20544;50.018;20.010;2023-02-12T08:27:11;8.83;;;6.15;;
23898;SDS011;20544;50.018;20.010;2023-02-12T08:30:27;7.10;;;4.90;;
23898;SDS011;20544;50.018;20.010;2023-02-12T08:33:46;6.65;;;4.43;;
23898;SDS011;20544;50.018;20.010;2023-02-12T08:37:05;6.95;;;4.43;;
23898;SDS011;20544;50.018;20.010;2023-02-12T08:40:21;6.98;;;4.50;;
23898;SDS011;20544;50.018;20.010;2023-02-12T08:43:37;5.95;;;4.30;;
23898;SDS011;20544;50.018;20.010;2023-02-12T08:46:55;6.20;;;4.30;;
23898;SDS011;20544;50.018;20.010;2023-02-12T08:50:12;4.93;;;3.70;;
23898;SDS011;20544;50.018;20.010;2023-02-12T08:53:29;6.03;;;4.20;;
23898;SDS011;20544;50.018;20.010;2023-02-12T08:56:45;5.78;;;3.33;;
23898;SDS011;20544;50.018;20.010;2023-02-12T09:00:03;5.48;;;3.55;;
23898;SDS011;20544;50.018;20.010;2023-02-12T09:03:23;7.18;;;4.28;;
23898;SDS011;20544;50.018;20.010;2023-02-12T09:06:40;4.93;;;3.58;;
23898;SDS011;20544;50.018;20.010;2023-02-12T09:09:57;115.85;;;79.90;;
23898;SDS011;20544;50.018;20.010;2023-02-12T09:13:16;21.38;;;12.33;;
23898;SDS011;20544;50.018;20.010;2023-02-12T09:16:36;8.83;;;5.53;;
23898;SDS011;20544;50.018;20.010;2023-02-12T09:19:53;8.25;;;4.43;;
23898;SDS011;20544;50.018;20.010;2023-02-12T09:23:10;7.68;;;3.83;;
23898;SDS011;20544;50.018;20.010;2023-02-12T09:26:28;6.45;;;3.78;;
23898;SDS011;20544;50.018;20.010;2023-02-12T09:29:45;4.43;;;3.83;;
23898;SDS011;20544;50.018;20.010;2023-02-12T09:33:01;4.88;;;3.80;;
23898;SDS011;20544;50.018;20.010;2023-02-12T09:36:19;5.65;;;4.03;;
23898;SDS011;20544;50.018;20.010;2023-02-12T09:39:36;4.80;;;3.70;;
23898;SDS011;20544;50.018;20.010;2023-02-12T09:43:01;5.60;;;3.85;;
23898;SDS011;20544;50.018;20.010;2023-02-12T09:46:28;5.78;;;3.85;;
23898;SDS011;20544;50.018;20.010;2023-02-12T09:49:52;5.50;;;3.90;;
23898;SDS011;20544;50.018;20.010;2023-02-12T09:56:34;12.05;;;7.23;;
23898;SDS011;20544;50.018;20.010;2023-02-12T09:59:57;7.73;;;4.80;;
23898;SDS011;20544;50.018;20.010;2023-02-12T10:03:16;6.55;;;4.35;;
23898;SDS011;20544;50.018;20.010;2023-02-12T10:06:35;5.65;;;3.83;;
23898;SDS011;20544;50.018;20.010;2023-02-12T10:10:07;4.93;;;4.13;;
23898;SDS011;20544;50.018;20.010;2023-02-12T10:13:46;6.30;;;4.18;;
23898;SDS011;20544;50.018;20.010;2023-02-12T10:17:10;9.10;;;4.45;;
23898;SDS011;20544;50.018;20.010;2023-02-12T10:20:34;5.40;;;3.95;;
23898;SDS011;20544;50.018;20.010;2023-02-12T10:24:15;6.08;;;4.60;;
23898;SDS011;20544;50.018;20.010;2023-02-12T10:27:45;7.08;;;4.55;;
23898;SDS011;20544;50.018;20.010;2023-02-12T10:31:06;6.98;;;4.53;;
23898;SDS011;20544;50.018;20.010;2023-02-12T10:34:31;5.60;;;4.13;;
23898;SDS011;20544;50.018;20.010;2023-02-12T10:37:49;8.65;;;5.10;;
23898;SDS011;20544;50.018;20.010;2023-02-12T10:41:09;8.90;;;5.60;;
23898;SDS011;20544;50.018;20.010;2023-02-12T10:44:28;26.80;;;14.35;;
23898;SDS011;20544;50.018;20.010;2023-02-12T10:47:46;8.50;;;5.35;;
23898;SDS011;20544;50.018;20.010;2023-02-12T10:51:14;9.98;;;5.10;;
23898;SDS011;20544;50.018;20.010;2023-02-12T10:54:41;7.43;;;4.45;;
23898;SDS011;20544;50.018;20.010;2023-02-12T10:58:00;7.35;;;4.90;;
23898;SDS011;20544;50.018;20.010;2023-02-12T11:01:27;8.75;;;4.75;;
23898;SDS011;20544;50.018;20.010;2023-02-12T11:04:45;6.18;;;4.50;;
23898;SDS011;20544;50.018;20.010;2023-02-12T11:08:02;5.93;;;4.40;;
23898;SDS011;20544;50.018;20.010;2023-02-12T11:11:22;5.60;;;4.73;;
23898;SDS011;20544;50.018;20.010;2023-02-12T11:14:42;6.90;;;5.35;;
23898;SDS011;20544;50.018;20.010;2023-02-12T11:18:04;6.60;;;4.50;;
23898;SDS011;20544;50.018;20.010;2023-02-12T11:21:24;9.43;;;4.88;;
23898;SDS011;20544;50.018;20.010;2023-02-12T11:24:43;7.03;;;5.13;;
23898;SDS011;20544;50.018;20.010;2023-02-12T11:28:03;7.87;;;4.70;;
23898;SDS011;20544;50.018;20.010;2023-02-12T11:31:28;7.43;;;4.98;;
23898;SDS011;20544;50.018;20.010;2023-02-12T11:38:15;8.58;;;5.40;;
23898;SDS011;20544;50.018;20.010;2023-02-12T11:41:38;9.83;;;5.60;;
23898;SDS011;20544;50.018;20.010;2023-02-12T11:44:56;9.63;;;5.55;;
23898;SDS011;20544;50.018;20.010;2023-02-12T11:48:17;6.67;;;4.73;;
23898;SDS011;20544;50.018;20.010;2023-02-12T11:51:38;6.60;;;5.60;;
23898;SDS011;20544;50.018;20.010;2023-02-12T11:54:58;8.35;;;5.68;;
23898;SDS011;20544;50.018;20.010;2023-02-12T11:58:19;7.13;;;5.55;;
23898;SDS011;20544;50.018;20.010;2023-02-12T12:01:41;8.45;;;5.28;;
23898;SDS011;20544;50.018;20.010;2023-02-12T12:05:02;10.80;;;5.98;;
23898;SDS011;20544;50.018;20.010;2023-02-12T12:08:22;7.48;;;5.65;;
23898;SDS011;20544;50.018;20.010;2023-02-12T12:11:46;8.88;;;6.48;;
23898;SDS011;20544;50.018;20.010;2023-02-12T12:15:09;7.18;;;5.73;;
23898;SDS011;20544;50.018;20.010;2023-02-12T12:18:48;6.43;;;5.63;;
23898;SDS011;20544;50.018;20.010;2023-02-12T12:22:25;8.40;;;6.18;;
23898;SDS011;20544;50.018;20.010;2023-02-12T12:25:50;8.45;;;6.23;;
23898;SDS011;20544;50.018;20.010;2023-02-12T12:29:12;9.90;;;7.55;;
23898;SDS011;20544;50.018;20.010;2023-02-12T12:32:34;11.50;;;7.08;;
23898;SDS011;20544;50.018;20.010;2023-02-12T12:35:59;8.45;;;7.03;;
23898;SDS011;20544;50.018;20.010;2023-02-12T12:40:05;9.20;;;6.55;;
23898;SDS011;20544;50.018;20.010;2023-02-12T12:43:40;8.40;;;6.75;;
23898;SDS011;20544;50.018;20.010;2023-02-12T12:47:06;11.58;;;7.23;;
23898;SDS011;20544;50.018;20.010;2023-02-12T12:50:39;9.00;;;6.73;;
23898;SDS011;20544;50.018;20.010;2023-02-12T12:57:26;10.88;;;7.30;;
23898;SDS011;20544;50.018;20.010;2023-02-12T13:00:57;11.10;;;7.85;;
23898;SDS011;20544;50.018;20.010;2023-02-12T13:11:40;11.30;;;7.78;;
23898;SDS011;20544;50.018;20.010;2023-02-12T13:15:05;10.28;;;7.88;;
23898;SDS011;20544;50.018;20.010;2023-02-12T13:18:32;12.10;;;7.78;;
23898;SDS011;20544;50.018;20.010;2023-02-12T13:21:57;12.45;;;7.75;;
23898;SDS011;20544;50.018;20.010;2023-02-12T13:25:20;10.23;;;8.13;;
23898;SDS011;20544;50.018;20.010;2023-02-12T13:28:42;11.33;;;7.93;;
23898;SDS011;20544;50.018;20.010;2023-02-12T13:32:04;13.70;;;8.58;;
23898;SDS011;20544;50.018;20.010;2023-02-12T13:35:26;14.05;;;8.50;;
23898;SDS011;20544;50.018;20.010;2023-02-12T13:38:48;10.40;;;8.63;;
23898;SDS011;20544;50.018;20.010;2023-02-12T13:42:37;10.03;;;8.20;;
23898;SDS011;20544;50.018;20.010;2023-02-12T13:46:01;12.60;;;9.05;;
23898;SDS011;20544;50.018;20.010;2023-02-12T13:49:23;22.20;;;10.50;;
23898;SDS011;20544;50.018;20.010;2023-02-12T13:56:04;12.88;;;9.03;;
23898;SDS011;20544;50.018;20.010;2023-02-12T13:59:39;14.93;;;9.50;;
23898;SDS011;20544;50.018;20.010;2023-02-12T14:03:00;11.88;;;8.70;;
23898;SDS011;20544;50.018;20.010;2023-02-12T14:06:22;11.65;;;9.00;;
23898;SDS011;20544;50.018;20.010;2023-02-12T14:09:58;11.33;;;8.80;;
23898;SDS011;20544;50.018;20.010;2023-02-12T14:13:20;12.48;;;8.75;;
23898;SDS011;20544;50.018;20.010;2023-02-12T14:16:40;12.88;;;9.38;;
23898;SDS011;20544;50.018;20.010;2023-02-12T14:19:58;15.73;;;9.80;;
23898;SDS011;20544;50.018;20.010;2023-02-12T14:23:25;12.53;;;9.43;;
23898;SDS011;20544;50.018;20.010;2023-02-12T14:26:41;11.95;;;9.08;;
23898;SDS011;20544;50.018;20.010;2023-02-12T14:30:03;13.50;;;9.13;;
23898;SDS011;20544;50.018;20.010;2023-02-12T14:33:38;14.30;;;9.30;;
23898;SDS011;20544;50.018;20.010;2023-02-12T14:40:44;12.20;;;9.53;;
23898;SDS011;20544;50.018;20.010;2023-02-12T14:47:58;12.60;;;9.88;;
23898;SDS011;20544;50.018;20.010;2023-02-12T14:51:19;13.70;;;10.18;;
23898;SDS011;20544;50.018;20.010;2023-02-12T14:54:39;15.83;;;9.95;;
23898;SDS011;20544;50.018;20.010;2023-02-12T14:58:00;14.80;;;9.50;;
23898;SDS011;20544;50.018;20.010;2023-02-12T15:01:27;14.28;;;10.58;;
23898;SDS011;20544;50.018;20.010;2023-02-12T15:04:46;12.60;;;9.58;;
23898;SDS011;20544;50.018;20.010;2023-02-12T15:08:06;15.73;;;10.23;;
23898;SDS011;20544;50.018;20.010;2023-02-12T15:11:37;13.65;;;10.78;;
23898;SDS011;20544;50.018;20.010;2023-02-12T15:14:54;12.90;;;9.85;;
23898;SDS011;20544;50.018;20.010;2023-02-12T15:18:17;13.15;;;9.60;;
23898;SDS011;20544;50.018;20.010;2023-02-12T15:21:36;18.03;;;12.20;;
23898;SDS011;20544;50.018;20.010;2023-02-12T15:24:54;15.90;;;10.60;;
23898;SDS011;20544;50.018;20.010;2023-02-12T15:28:29;15.58;;;10.10;;
23898;SDS011;20544;50.018;20.010;2023-02-12T15:31:50;13.85;;;10.83;;
23898;SDS011;20544;50.018;20.010;2023-02-12T15:35:17;14.05;;;10.78;;
23898;SDS011;20544;50.018;20.010;2023-02-12T15:38:39;16.98;;;11.93;;
23898;SDS011;20544;50.018;20.010;2023-02-12T15:41:58;14.68;;;11.03;;
23898;SDS011;20544;50.018;20.010;2023-02-12T15:45:19;16.30;;;11.88;;
23898;SDS011;20544;50.018;20.010;2023-02-12T15:48:38;18.60;;;11.88;;
23898;SDS011;20544;50.018;20.010;2023-02-12T15:51:58;14.78;;;10.95;;
23898;SDS011;20544;50.018;20.010;2023-02-12T15:55:19;15.63;;;10.15;;
23898;SDS011;20544;50.018;20.010;2023-02-12T15:58:40;17.65;;;11.33;;
23898;SDS011;20544;50.018;20.010;2023-02-12T16:02:00;16.63;;;10.68;;
23898;SDS011;20544;50.018;20.010;2023-02-12T16:05:30;19.18;;;11.53;;
23898;SDS011;20544;50.018;20.010;2023-02-12T16:08:52;17.68;;;11.08;;
23898;SDS011;20544;50.018;20.010;2023-02-12T16:12:11;18.18;;;11.60;;
23898;SDS011;20544;50.018;20.010;2023-02-12T16:15:30;16.75;;;11.50;;
23898;SDS011;20544;50.018;20.010;2023-02-12T16:19:01;21.85;;;11.70;;
23898;SDS011;20544;50.018;20.010;2023-02-12T16:22:27;20.23;;;12.48;;
23898;SDS011;20544;50.018;20.010;2023-02-12T16:25:51;18.48;;;12.33;;
23898;SDS011;20544;50.018;20.010;2023-02-12T16:29:13;18.58;;;12.33;;
23898;SDS011;20544;50.018;20.010;2023-02-12T16:32:36;19.18;;;12.45;;
23898;SDS011;20544;50.018;20.010;2023-02-12T16:36:00;16.15;;;11.28;;
23898;SDS011;20544;50.018;20.010;2023-02-12T16:42:24;18.28;;;11.83;;
23898;SDS011;20544;50.018;20.010;2023-02-12T16:45:42;20.45;;;12.05;;
23898;SDS011;20544;50.018;20.010;2023-02-12T16:49:00;20.15;;;13.20;;
23898;SDS011;20544;50.018;20.010;2023-02-12T16:52:23;21.50;;;12.83;;
23898;SDS011;20544;50.018;20.010;2023-02-12T16:55:46;22.78;;;13.40;;
23898;SDS011;20544;50.018;20.010;2023-02-12T16:59:03;25.55;;;15.80;;
23898;SDS011;20544;50.018;20.010;2023-02-12T17:02:22;20.68;;;12.73;;
23898;SDS011;20544;50.018;20.010;2023-02-12T17:05:39;22.90;;;13.93;;
23898;SDS011;20544;50.018;20.010;2023-02-12T17:08:57;21.13;;;12.65;;
23898;SDS011;20544;50.018;20.010;2023-02-12T17:12:14;88.65;;;53.50;;
23898;SDS011;20544;50.018;20.010;2023-02-12T17:15:32;143.75;;;81.73;;
23898;SDS011;20544;50.018;20.010;2023-02-12T17:18:52;45.78;;;24.55;;
23898;SDS011;20544;50.018;20.010;2023-02-12T17:22:13;26.43;;;15.18;;
23898;SDS011;20544;50.018;20.010;2023-02-12T17:28:37;21.28;;;11.63;;
23898;SDS011;20544;50.018;20.010;2023-02-12T17:31:55;24.33;;;13.10;;
23898;SDS011;20544;50.018;20.010;2023-02-12T17:35:12;19.25;;;12.03;;
23898;SDS011;20544;50.018;20.010;2023-02-12T17:38:28;20.50;;;13.38;;
23898;SDS011;20544;50.018;20.010;2023-02-12T17:41:46;22.53;;;12.95;;
23898;SDS011;20544;50.018;20.010;2023-02-12T17:45:09;25.18;;;13.65;;
23898;SDS011;20544;50.018;20.010;2023-02-12T17:48:27;24.00;;;13.23;;
23898;SDS011;20544;50.018;20.010;2023-02-12T17:51:47;95.08;;;52.65;;
23898;SDS011;20544;50.018;20.010;2023-02-12T17:55:04;34.13;;;19.13;;
23898;SDS011;20544;50.018;20.010;2023-02-12T17:58:25;25.38;;;15.53;;
23898;SDS011;20544;50.018;20.010;2023-02-12T18:01:47;26.28;;;15.30;;
23898;SDS011;20544;50.018;20.010;2023-02-12T18:05:10;26.00;;;15.88;;
23898;SDS011;20544;50.018;20.010;2023-02-12T18:08:27;27.98;;;18.03;;
23898;SDS011;20544;50.018;20.010;2023-02-12T18:11:44;27.68;;;18.48;;
23898;SDS011;20544;50.018;20.010;2023-02-12T18:15:01;30.15;;;18.43;;
23898;SDS011;20544;50.018;20.010;2023-02-12T18:18:21;29.93;;;19.18;;
23898;SDS011;20544;50.018;20.010;2023-02-12T18:21:37;28.20;;;17.75;;
23898;SDS011;20544;50.018;20.010;2023-02-12T18:27:57;24.80;;;16.75;;
23898;SDS011;20544;50.018;20.010;2023-02-12T18:31:14;26.75;;;17.38;;
23898;SDS011;20544;50.018;20.010;2023-02-12T18:34:32;26.90;;;17.03;;
23898;SDS011;20544;50.018;20.010;2023-02-12T18:37:51;27.70;;;18.55;;
23898;SDS011;20544;50.018;20.010;2023-02-12T18:41:08;27.78;;;18.08;;
23898;SDS011;20544;50.018;20.010;2023-02-12T18:44:28;29.28;;;19.00;;
23898;SDS011;20544;50.018;20.010;2023-02-12T18:47:45;28.45;;;16.80;;
23898;SDS011;20544;50.018;20.010;2023-02-12T18:51:01;30.15;;;19.65;;
23898;SDS011;20544;50.018;20.010;2023-02-12T19:00:26;40.00;;;22.53;;
23898;SDS011;20544;50.018;20.010;2023-02-12T19:03:43;28.15;;;17.55;;
23898;SDS011;20544;50.018;20.010;2023-02-12T19:07:02;27.70;;;16.83;;
23898;SDS011;20544;50.018;20.010;2023-02-12T19:13:39;23.98;;;15.78;;
23898;SDS011;20544;50.018;20.010;2023-02-12T19:17:24;24.80;;;16.40;;
23898;SDS011;20544;50.018;20.010;2023-02-12T19:27:34;26.33;;;16.43;;
23898;SDS011;20544;50.018;20.010;2023-02-12T19:30:54;27.03;;;16.90;;
23898;SDS011;20544;50.018;20.010;2023-02-12T19:34:14;28.23;;;17.18;;
23898;SDS011;20544;50.018;20.010;2023-02-12T19:37:35;26.65;;;18.48;;
23898;SDS011;20544;50.018;20.010;2023-02-12T19:41:02;45.90;;;27.25;;
23898;SDS011;20544;50.018;20.010;2023-02-12T19:44:24;32.33;;;20.83;;
23898;SDS011;20544;50.018;20.010;2023-02-12T19:47:41;29.10;;;17.95;;
23898;SDS011;20544;50.018;20.010;2023-02-12T19:50:58;28.38;;;18.20;;
23898;SDS011;20544;50.018;20.010;2023-02-12T20:00:23;28.75;;;19.13;;
23898;SDS011;20544;50.018;20.010;2023-02-12T20:03:41;28.03;;;18.28;;
23898;SDS011;20544;50.018;20.010;2023-02-12T20:07:00;27.43;;;18.60;;
23898;SDS011;20544;50.018;20.010;2023-02-12T20:10:16;28.63;;;18.55;;
23898;SDS011;20544;50.018;20.010;2023-02-12T20:13:33;28.18;;;18.93;;
23898;SDS011;20544;50.018;20.010;2023-02-12T20:16:52;30.98;;;20.28;;
23898;SDS011;20544;50.018;20.010;2023-02-12T20:23:26;34.45;;;20.20;;
23898;SDS011;20544;50.018;20.010;2023-02-12T20:26:43;30.40;;;20.70;;
23898;SDS011;20544;50.018;20.010;2023-02-12T20:30:00;31.23;;;20.40;;
23898;SDS011;20544;50.018;20.010;2023-02-12T20:33:20;33.28;;;20.65;;
23898;SDS011;20544;50.018;20.010;2023-02-12T20:36:37;28.75;;;19.10;;
23898;SDS011;20544;50.018;20.010;2023-02-12T20:39:57;51.60;;;31.90;;